Time;durP1;ratioP1;P1;durP2;ratioP2;P2;SDS_P1;SDS_P2;PMS_P1;PMS_P2;Temp;Humidity;BMP_temperature;BMP_pressure;BME280_temperature;BME280_humidity;BME280_pressure;Samples;Min_cycle;Max_cycle;Signal;HPM_P1;HPM_P2
2024/01/27 00:00:59;;;;;;;13.30;7.20;;;;;;;-0.43;64.40;101495.58;107569;1250;111460;-64
2024/01/27 00:03:43;;;;;;;11.60;8.20;;;;;;;-0.46;64.57;101487.89;107613;1251;108327;-64
2024/01/27 00:06:11;;;;;;;14.40;7.60;;;;;;;-0.49;64.74;101488.66;107621;1251;108016;-65
2024/01/27 00:08:40;;;;;;;11.80;8.20;;;;;;;-0.51;64.48;101479.43;107587;1251;97950;-66
2024/01/27 00:11:08;;;;;;;15.90;8.20;;;;;;;-0.52;64.38;101472.40;107654;1250;98392;-66
2024/01/27 00:13:36;;;;;;;17.00;9.70;;;;;;;-0.52;64.38;101469.39;107608;1251;112327;-66
2024/01/27 00:16:05;;;;;;;13.40;8.40;;;;;;;-0.51;64.87;101465.86;107670;1251;108460;-65
2024/01/27 00:18:37;;;;;;;13.40;9.60;;;;;;;-0.52;64.72;101471.69;107598;1251;107183;-65
2024/01/27 00:21:07;;;;;;;13.10;8.40;;;;;;;-0.51;64.82;101475.38;107619;1251;98548;-64
2024/01/27 00:23:35;;;;;;;16.70;9.20;;;;;;;-0.52;64.78;101470.27;107668;1251;97815;-65
2024/01/27 00:26:04;;;;;;;18.30;9.80;;;;;;;-0.53;64.91;101466.95;107677;1251;112034;-64
2024/01/27 00:28:32;;;;;;;18.40;9.20;;;;;;;-0.55;64.83;101471.78;107607;1255;106690;-66
2024/01/27 00:31:01;;;;;;;15.30;9.60;;;;;;;-0.58;64.75;101466.42;107579;1251;108640;-65
2024/01/27 00:33:29;;;;;;;17.50;9.40;;;;;;;-0.60;64.72;101470.19;107578;1251;97834;-65
2024/01/27 00:35:57;;;;;;;23.70;9.10;;;;;;;-0.60;64.63;101472.83;107593;1253;97720;-66
2024/01/27 00:38:26;;;;;;;15.90;9.80;;;;;;;-0.59;64.60;101474.94;107624;1252;112209;-65
2024/01/27 00:40:54;;;;;;;15.40;9.60;;;;;;;-0.59;64.80;101472.62;107637;1251;108366;-66
2024/01/27 00:43:23;;;;;;;16.80;9.10;;;;;;;-0.58;64.58;101470.63;107672;1251;108375;-67
2024/01/27 00:45:51;;;;;;;14.70;9.90;;;;;;;-0.56;64.73;101477.64;107627;1251;97827;-64
2024/01/27 00:48:20;;;;;;;18.10;9.60;;;;;;;-0.54;64.50;101475.98;107662;1251;97726;-65
2024/01/27 00:50:48;;;;;;;14.40;9.00;;;;;;;-0.52;64.69;101481.55;107582;1251;111307;-65
2024/01/27 00:53:17;;;;;;;20.50;10.00;;;;;;;-0.49;64.60;101473.35;107644;1251;107669;-65
2024/01/27 00:55:45;;;;;;;14.30;9.80;;;;;;;-0.45;64.53;101473.41;107593;1254;108347;-66
2024/01/27 00:58:13;;;;;;;15.60;9.30;;;;;;;-0.43;64.92;101471.42;107586;1252;97892;-64
2024/01/27 01:00:42;;;;;;;15.30;10.10;;;;;;;-0.43;64.96;101474.92;107671;1254;97739;-66
2024/01/27 01:03:10;;;;;;;15.00;9.50;;;;;;;-0.42;64.82;101473.51;107625;1254;111603;-63
2024/01/27 01:05:39;;;;;;;16.70;10.10;;;;;;;-0.41;64.98;101467.14;107571;1253;108558;-65
2024/01/27 01:08:07;;;;;;;12.50;8.50;;;;;;;-0.42;65.10;101459.94;107559;1252;108588;-65
2024/01/27 01:10:35;;;;;;;12.70;8.80;;;;;;;-0.41;65.17;101456.73;107581;1253;96937;-64
2024/01/27 01:13:04;;;;;;;13.70;9.30;;;;;;;-0.42;65.28;101451.10;107585;1253;97768;-65
2024/01/27 01:15:33;;;;;;;18.00;9.50;;;;;;;-0.39;65.43;101458.43;107606;1254;111901;-65
2024/01/27 01:18:01;;;;;;;11.60;8.90;;;;;;;-0.36;65.39;101456.22;107614;1254;106592;-64
2024/01/27 01:20:30;;;;;;;13.10;8.90;;;;;;;-0.31;65.34;101454.81;107599;1253;108836;-66
2024/01/27 01:22:58;;;;;;;13.10;8.20;;;;;;;-0.29;64.79;101443.30;107593;1254;97848;-67
2024/01/27 01:25:26;;;;;;;12.80;8.70;;;;;;;-0.30;64.93;101439.81;107573;1251;96984;-67
2024/01/27 01:27:55;;;;;;;13.10;8.00;;;;;;;-0.33;64.65;101441.83;107589;1255;111869;-65
2024/01/27 01:30:23;;;;;;;15.30;8.70;;;;;;;-0.32;64.62;101442.69;107640;1251;108296;-65
2024/01/27 01:32:52;;;;;;;16.60;8.10;;;;;;;-0.30;64.68;101437.86;107570;1253;108173;-65
2024/01/27 01:35:20;;;;;;;14.20;9.50;;;;;;;-0.27;64.92;101435.65;107576;1254;98001;-65
2024/01/27 01:37:50;;;;;;;16.80;8.60;;;;;;;-0.22;65.23;101429.33;107584;1254;98089;-65
2024/01/27 01:40:18;;;;;;;19.10;9.80;;;;;;;-0.17;65.13;101427.91;107604;1253;111187;-67
2024/01/27 01:42:51;;;;;;;16.40;8.90;;;;;;;-0.16;64.99;101419.23;107584;1254;107827;-66
2024/01/27 01:45:20;;;;;;;14.90;9.00;;;;;;;-0.13;64.67;101412.09;107572;1251;106706;-65
2024/01/27 01:47:48;;;;;;;15.80;8.60;;;;;;;-0.11;64.76;101414.14;107645;1251;97981;-63
2024/01/27 01:50:18;;;;;;;24.20;9.10;;;;;;;-0.12;64.37;101402.57;107553;1251;97825;-65
2024/01/27 01:52:49;;;;;;;14.20;8.90;;;;;;;-0.18;64.15;101407.14;107596;1251;111237;-65
2024/01/27 01:55:17;;;;;;;13.40;8.40;;;;;;;-0.24;64.11;101411.77;107595;1251;108074;-66
2024/01/27 01:57:46;;;;;;;15.40;8.60;;;;;;;-0.30;64.18;101414.25;107460;1251;107662;-65
2024/01/27 02:00:16;;;;;;;23.10;9.70;;;;;;;-0.36;64.11;101409.13;107498;1251;97960;-65
2024/01/27 02:02:47;;;;;;;14.80;9.50;;;;;;;-0.40;64.22;101408.92;107571;1251;97843;-64
2024/01/27 02:05:16;;;;;;;16.10;9.30;;;;;;;-0.43;64.32;101409.55;107624;1251;111802;-64
2024/01/27 02:07:44;;;;;;;15.80;9.80;;;;;;;-0.45;64.57;101406.96;107527;1251;107830;-64
2024/01/27 02:10:17;;;;;;;13.50;8.80;;;;;;;-0.47;64.30;101397.52;107555;1253;107331;-64
2024/01/27 02:12:45;;;;;;;16.80;10.00;;;;;;;-0.48;64.49;101403.89;107600;1252;97704;-64
2024/01/27 02:15:14;;;;;;;14.50;8.90;;;;;;;-0.51;64.51;101403.48;107621;1253;98567;-64
2024/01/27 02:17:43;;;;;;;16.80;10.00;;;;;;;-0.53;64.35;101407.05;107607;1256;110537;-64
2024/01/27 02:20:11;;;;;;;19.40;10.40;;;;;;;-0.52;64.66;101400.86;107602;1251;108522;-65
2024/01/27 02:22:39;;;;;;;16.80;9.60;;;;;;;-0.53;64.83;101403.89;107556;1256;107960;-66
2024/01/27 02:25:08;;;;;;;16.80;10.40;;;;;;;-0.56;64.94;101409.79;107519;1251;97920;-65
2024/01/27 02:27:37;;;;;;;16.90;10.70;;;;;;;-0.60;65.12;101406.94;107620;1251;97825;-66
2024/01/27 02:30:06;;;;;;;16.00;10.10;;;;;;;-0.64;64.74;101401.94;107528;1251;111496;-66
2024/01/27 02:32:35;;;;;;;15.30;10.00;;;;;;;-0.69;65.12;101404.39;107618;1251;106804;-66
2024/01/27 02:35:03;;;;;;;19.30;10.70;;;;;;;-0.74;65.32;101405.95;107585;1251;108300;-66
2024/01/27 02:37:32;;;;;;;17.70;11.30;;;;;;;-0.77;65.39;101404.11;107574;1254;97909;-65
2024/01/27 02:40:00;;;;;;;13.90;9.60;;;;;;;-0.81;65.39;101402.13;107572;1254;97714;-65
2024/01/27 02:42:29;;;;;;;20.90;12.60;;;;;;;-0.82;65.64;101390.89;107606;1254;112044;-65
2024/01/27 02:44:57;;;;;;;19.10;11.10;;;;;;;-0.81;65.68;101381.15;107509;1254;108548;-64
2024/01/27 02:47:26;;;;;;;20.50;10.00;;;;;;;-0.83;65.66;101374.69;107577;1254;107987;-64
2024/01/27 02:49:54;;;;;;;26.60;13.80;;;;;;;-0.83;65.80;101385.98;107533;1254;97834;-65
2024/01/27 02:52:22;;;;;;;24.20;13.00;;;;;;;-0.81;66.08;101390.13;107664;1254;97719;-65
2024/01/27 02:54:51;;;;;;;17.90;11.00;;;;;;;-0.76;66.08;101380.65;107602;1251;110466;-64
2024/01/27 02:57:20;;;;;;;16.70;10.80;;;;;;;-0.70;66.50;101378.35;107638;1255;108311;-64
2024/01/27 02:59:49;;;;;;;19.30;10.60;;;;;;;-0.66;66.36;101378.94;107551;1254;109370;-64
2024/01/27 03:02:18;;;;;;;23.30;10.50;;;;;;;-0.61;66.27;101377.36;107640;1256;98066;-65
2024/01/27 03:04:46;;;;;;;18.10;10.00;;;;;;;-0.58;66.52;101380.95;107647;1254;97821;-65
2024/01/27 03:07:15;;;;;;;21.50;10.90;;;;;;;-0.54;66.52;101374.86;107587;1254;111056;-65
2024/01/27 03:09:43;;;;;;;20.00;10.50;;;;;;;-0.51;66.38;101367.50;107633;1251;108499;-65
2024/01/27 03:12:12;;;;;;;18.60;10.60;;;;;;;-0.45;66.56;101364.16;107602;1251;107694;-65
2024/01/27 03:14:42;;;;;;;17.70;9.40;;;;;;;-0.39;66.55;101361.67;107583;1253;97818;-64
2024/01/27 03:17:10;;;;;;;23.30;10.20;;;;;;;-0.33;66.76;101353.35;107647;1254;98288;-65
2024/01/27 03:19:38;;;;;;;18.00;9.70;;;;;;;-0.26;66.67;101338.67;107565;1254;111829;-64
2024/01/27 03:22:07;;;;;;;22.40;10.60;;;;;;;-0.21;66.74;101344.83;107594;1254;108420;-64
2024/01/27 03:24:35;;;;;;;17.30;10.00;;;;;;;-0.19;66.41;101351.13;107641;1254;107630;-64
2024/01/27 03:27:04;;;;;;;19.00;11.50;;;;;;;-0.22;66.19;101352.09;107537;1256;97819;-64
2024/01/27 03:29:32;;;;;;;17.70;11.20;;;;;;;-0.23;65.93;101350.56;107622;1256;97939;-65
2024/01/27 03:32:00;;;;;;;19.40;11.30;;;;;;;-0.28;65.70;101349.51;107591;1253;110630;-64
2024/01/27 03:34:29;;;;;;;16.50;10.80;;;;;;;-0.37;65.56;101344.85;107573;1251;108164;-63
2024/01/27 03:36:57;;;;;;;17.90;10.50;;;;;;;-0.40;65.49;101345.47;107576;1256;107769;-65
2024/01/27 03:39:26;;;;;;;17.40;10.60;;;;;;;-0.39;65.56;101333.45;107533;1251;97892;-64
2024/01/27 03:41:54;;;;;;;18.90;11.10;;;;;;;-0.39;65.54;101328.33;107623;1251;98417;-64
2024/01/27 03:44:23;;;;;;;20.20;12.10;;;;;;;-0.40;65.55;101323.63;107636;1255;111922;-65
2024/01/27 03:46:51;;;;;;;23.70;13.40;;;;;;;-0.42;65.53;101318.95;107625;1251;108647;-65
2024/01/27 03:49:19;;;;;;;20.60;12.20;;;;;;;-0.45;65.59;101320.47;107639;1254;108353;-64
2024/01/27 03:51:48;;;;;;;21.20;13.10;;;;;;;-0.50;65.87;101322.05;107567;1250;97821;-65
2024/01/27 03:54:16;;;;;;;20.00;12.70;;;;;;;-0.58;65.56;101316.28;107598;1251;97796;-63
2024/01/27 03:56:44;;;;;;;21.10;12.50;;;;;;;-0.64;65.49;101315.27;107604;1251;111385;-63
2024/01/27 03:59:12;;;;;;;18.40;11.10;;;;;;;-0.70;65.57;101309.84;107632;1256;109884;-63
2024/01/27 04:01:41;;;;;;;22.10;12.70;;;;;;;-0.74;65.49;101317.53;107587;1255;108136;-65
2024/01/27 04:04:09;;;;;;;22.20;11.40;;;;;;;-0.78;65.56;101315.38;107637;1250;97915;-66
2024/01/27 04:06:41;;;;;;;18.20;11.80;;;;;;;-0.80;65.78;101314.02;107697;1251;98366;-66
2024/01/27 04:09:09;;;;;;;23.00;12.60;;;;;;;-0.84;65.57;101313.44;107591;1256;110729;-65
2024/01/27 04:11:38;;;;;;;23.30;13.10;;;;;;;-0.87;65.59;101316.55;107658;1251;107356;-65
2024/01/27 04:14:07;;;;;;;28.40;13.00;;;;;;;-0.92;65.83;101311.05;107549;1253;107993;-65
2024/01/27 04:16:36;;;;;;;26.60;13.40;;;;;;;-0.97;65.68;101311.58;107654;1256;97831;-65
2024/01/27 04:19:04;;;;;;;19.50;12.30;;;;;;;-1.00;65.64;101316.95;107656;1251;97728;-65
2024/01/27 04:21:33;;;;;;;18.10;12.00;;;;;;;-1.04;65.68;101319.89;107608;1251;111415;-65
2024/01/27 04:24:01;;;;;;;18.50;11.80;;;;;;;-1.06;65.82;101321.19;107592;1255;108392;-66
2024/01/27 04:26:30;;;;;;;21.00;12.10;;;;;;;-1.09;66.06;101326.04;107608;1251;107845;-66
2024/01/27 04:28:58;;;;;;;18.00;11.40;;;;;;;-1.14;65.88;101328.81;107591;1254;97882;-64
2024/01/27 04:31:26;;;;;;;21.20;12.70;;;;;;;-1.19;66.20;101331.96;107562;1254;97844;-65
2024/01/27 04:33:54;;;;;;;20.90;12.80;;;;;;;-1.24;66.27;101332.46;107606;1254;111815;-63
2024/01/27 04:36:29;;;;;;;20.00;11.90;;;;;;;-1.28;66.33;101335.23;107556;1254;108237;-65
2024/01/27 04:38:57;;;;;;;23.00;12.20;;;;;;;-1.32;66.36;101335.00;107615;1251;106723;-65
2024/01/27 04:41:26;;;;;;;20.60;12.70;;;;;;;-1.35;66.59;101336.67;107669;1257;97977;-64
2024/01/27 04:43:56;;;;;;;20.50;13.30;;;;;;;-1.36;66.70;101342.51;107604;1254;97727;-65
2024/01/27 04:46:25;;;;;;;23.30;13.00;;;;;;;-1.38;66.81;101344.65;107548;1254;111344;-64
2024/01/27 04:48:53;;;;;;;23.40;12.40;;;;;;;-1.38;66.95;101353.47;107595;1254;108325;-64
2024/01/27 04:51:21;;;;;;;22.30;14.40;;;;;;;-1.39;66.90;101351.71;107516;1254;107472;-64
2024/01/27 04:53:50;;;;;;;21.60;13.40;;;;;;;-1.38;67.26;101357.86;107585;1254;97823;-65
2024/01/27 04:56:18;;;;;;;21.30;13.40;;;;;;;-1.38;67.41;101345.19;107590;1251;98354;-64
2024/01/27 04:58:47;;;;;;;20.60;12.00;;;;;;;-1.35;67.67;101335.60;107604;1251;112027;-65
2024/01/27 05:01:16;;;;;;;16.60;11.60;;;;;;;-1.31;67.62;101326.34;107552;1256;108434;-64
2024/01/27 05:03:44;;;;;;;18.90;11.90;;;;;;;-1.26;67.86;101330.06;107588;1254;108701;-64
2024/01/27 05:06:13;;;;;;;18.30;11.70;;;;;;;-1.21;67.95;101336.42;107565;1251;97724;-64
2024/01/27 05:08:41;;;;;;;23.80;12.70;;;;;;;-1.15;67.97;101342.76;107610;1251;97831;-64
2024/01/27 05:11:10;;;;;;;21.00;12.80;;;;;;;-1.08;68.34;101347.29;107550;1251;112133;-65
2024/01/27 05:13:40;;;;;;;22.40;12.70;;;;;;;-1.03;68.30;101349.97;107635;1254;108111;-66
2024/01/27 05:16:08;;;;;;;21.10;12.50;;;;;;;-1.00;68.58;101343.00;107631;1255;108182;-65
2024/01/27 05:18:36;;;;;;;21.60;12.30;;;;;;;-0.97;68.41;101342.36;107575;1251;97716;-66
2024/01/27 05:21:05;;;;;;;20.20;12.00;;;;;;;-0.93;68.47;101343.31;107583;1255;98369;-65
2024/01/27 05:23:33;;;;;;;20.80;12.20;;;;;;;-0.90;68.56;101349.73;107621;1254;110542;-65
2024/01/27 05:26:02;;;;;;;19.50;11.30;;;;;;;-0.88;68.50;101349.14;107600;1251;109016;-65
2024/01/27 05:28:31;;;;;;;23.60;11.80;;;;;;;-0.86;68.33;101345.91;107635;1251;108107;-65
2024/01/27 05:31:00;;;;;;;18.80;11.00;;;;;;;-0.84;68.39;101350.25;107527;1250;97928;-66
2024/01/27 05:33:28;;;;;;;18.90;10.20;;;;;;;-0.88;67.24;101347.74;107621;1251;97824;-64
2024/01/27 05:35:57;;;;;;;24.40;11.30;;;;;;;-0.93;67.16;101348.25;107626;1250;110819;-66
2024/01/27 05:38:26;;;;;;;18.00;11.00;;;;;;;-0.96;66.50;101351.15;107578;1253;107500;-65
2024/01/27 05:40:54;;;;;;;26.30;11.60;;;;;;;-1.00;66.16;101353.56;107559;1254;108081;-63
2024/01/27 05:43:23;;;;;;;16.90;11.60;;;;;;;-1.05;66.08;101348.42;107540;1254;97842;-64
2024/01/27 05:45:51;;;;;;;20.60;12.30;;;;;;;-1.08;66.05;101351.19;107585;1251;97832;-64
2024/01/27 05:48:20;;;;;;;20.80;12.40;;;;;;;-1.13;66.25;101350.08;107583;1257;110891;-65
2024/01/27 05:50:59;;;;;;;24.30;12.50;;;;;;;-1.14;66.31;101351.16;107554;1256;108317;-66
2024/01/27 05:53:28;;;;;;;17.90;11.70;;;;;;;-1.13;66.35;101356.08;107651;1255;107519;-65
2024/01/27 05:55:59;;;;;;;20.20;11.60;;;;;;;-1.15;66.34;101363.54;107587;1256;97819;-65
2024/01/27 05:58:28;;;;;;;15.90;10.00;;;;;;;-1.17;66.28;101367.27;107594;1255;99167;-64
2024/01/27 06:00:56;;;;;;;21.60;12.20;;;;;;;-1.12;66.12;101372.40;107625;1256;112337;-64
2024/01/27 06:03:25;;;;;;;20.20;11.30;;;;;;;-1.09;66.19;101374.44;107600;1254;108614;-64
2024/01/27 06:05:53;;;;;;;23.20;12.80;;;;;;;-1.09;66.28;101376.39;107569;1254;107486;-64
2024/01/27 06:08:21;;;;;;;18.90;11.60;;;;;;;-1.09;66.14;101375.16;107555;1255;97898;-65
2024/01/27 06:10:50;;;;;;;19.90;13.10;;;;;;;-1.14;66.23;101378.81;107615;1250;97744;-66
2024/01/27 06:13:18;;;;;;;20.00;11.90;;;;;;;-1.14;66.15;101380.56;107602;1256;111832;-66
2024/01/27 06:15:47;;;;;;;24.80;12.00;;;;;;;-1.10;66.33;101384.67;107591;1251;108114;-64
2024/01/27 06:18:15;;;;;;;21.40;12.30;;;;;;;-1.12;66.37;101382.62;107528;1251;107384;-64
2024/01/27 06:20:44;;;;;;;28.20;13.30;;;;;;;-1.13;66.23;101384.41;107570;1251;97835;-65
2024/01/27 06:23:13;;;;;;;27.40;14.70;;;;;;;-1.14;66.33;101385.52;107599;1257;98379;-64
2024/01/27 06:25:41;;;;;;;23.50;13.50;;;;;;;-1.13;66.11;101386.52;107532;1251;112233;-64
2024/01/27 06:28:10;;;;;;;25.40;13.50;;;;;;;-1.08;66.18;101388.32;107484;1255;109473;-65
2024/01/27 06:30:38;;;;;;;22.30;12.90;;;;;;;-1.05;66.34;101388.40;107473;1251;108274;-66
2024/01/27 06:33:07;;;;;;;25.40;14.40;;;;;;;-1.03;66.34;101392.21;107552;1251;97832;-64
2024/01/27 06:35:35;;;;;;;23.40;13.20;;;;;;;-0.97;66.40;101397.30;107622;1256;97821;-66
2024/01/27 06:38:03;;;;;;;26.40;15.20;;;;;;;-0.89;66.75;101396.20;107492;1251;110637;-64
2024/01/27 06:40:32;;;;;;;29.30;15.60;;;;;;;-0.78;66.90;101399.02;107547;1253;107730;-65
2024/01/27 06:43:00;;;;;;;25.30;14.50;;;;;;;-0.68;66.53;101399.42;107582;1255;108579;-65
2024/01/27 06:45:31;;;;;;;32.40;15.30;;;;;;;-0.58;66.74;101402.64;107525;1255;97852;-64
2024/01/27 06:47:59;;;;;;;24.50;14.30;;;;;;;-0.49;66.78;101410.45;107614;1251;98362;-65
2024/01/27 06:50:28;;;;;;;25.30;14.20;;;;;;;-0.41;66.44;101412.84;107535;1254;112036;-64
2024/01/27 06:52:56;;;;;;;23.80;14.30;;;;;;;-0.34;66.62;101408.02;107511;1251;106235;-63
2024/01/27 06:55:25;;;;;;;21.20;13.10;;;;;;;-0.27;66.46;101409.74;107528;1251;107284;-63
2024/01/27 06:57:53;;;;;;;26.40;13.60;;;;;;;-0.22;65.76;101409.59;107461;1251;97817;-63
2024/01/27 07:00:22;;;;;;;23.30;12.50;;;;;;;-0.22;65.54;101408.85;107482;1251;97711;-64
2024/01/27 07:02:51;;;;;;;27.60;14.00;;;;;;;-0.15;65.90;101412.01;107598;1251;112164;-64
2024/01/27 07:05:21;;;;;;;25.30;13.20;;;;;;;-0.08;65.46;101417.23;107672;1251;108674;-63
2024/01/27 07:07:49;;;;;;;26.20;12.70;;;;;;;-0.03;65.33;101418.27;107495;1251;107682;-63
2024/01/27 07:10:18;;;;;;;23.90;13.50;;;;;;;-0.02;64.96;101413.15;107548;1251;97832;-65
2024/01/27 07:12:46;;;;;;;25.00;13.00;;;;;;;-0.00;64.58;101411.66;107497;1251;97819;-64
2024/01/27 07:15:14;;;;;;;25.30;13.00;;;;;;;0.05;64.43;101410.27;107494;1250;111690;-65
2024/01/27 07:17:43;;;;;;;23.00;13.40;;;;;;;0.07;63.89;101412.65;107609;1254;107687;-65
2024/01/27 07:20:12;;;;;;;24.60;13.00;;;;;;;0.09;64.10;101416.98;107527;1251;108340;-66
2024/01/27 07:22:41;;;;;;;24.20;13.90;;;;;;;0.09;63.61;101420.34;107502;1251;98549;-65
2024/01/27 07:25:12;;;;;;;24.10;14.00;;;;;;;0.04;63.71;101423.16;107506;1251;97816;-65
2024/01/27 07:27:40;;;;;;;24.50;15.30;;;;;;;-0.04;63.84;101420.09;107555;1251;110994;-65
2024/01/27 07:30:11;;;;;;;23.10;14.00;;;;;;;-0.07;64.07;101419.30;107507;1251;108173;-65
2024/01/27 07:32:40;;;;;;;27.00;14.40;;;;;;;-0.09;64.75;101420.80;107558;1254;107716;-65
2024/01/27 07:35:09;;;;;;;23.30;13.70;;;;;;;-0.06;64.90;101415.92;107587;1256;97841;-65
2024/01/27 07:37:37;;;;;;;24.50;14.10;;;;;;;0.01;65.41;101413.73;107597;1254;98380;-64
2024/01/27 07:40:06;;;;;;;25.90;15.30;;;;;;;0.01;65.63;101414.28;107601;1251;110961;-66
2024/01/27 07:42:35;;;;;;;25.10;14.80;;;;;;;0.04;65.83;101420.02;107549;1251;108637;-63
2024/01/27 07:45:04;;;;;;;31.70;16.30;;;;;;;0.09;66.05;101416.12;107612;1251;107901;-64
2024/01/27 07:47:32;;;;;;;29.10;17.20;;;;;;;0.14;66.43;101412.94;107504;1251;97911;-65
2024/01/27 07:50:01;;;;;;;22.70;15.30;;;;;;;0.20;66.59;101415.21;107522;1251;99059;-66
2024/01/27 07:52:30;;;;;;;25.90;14.80;;;;;;;0.26;66.55;101418.20;107575;1251;110969;-66
2024/01/27 07:54:58;;;;;;;30.20;16.30;;;;;;;0.30;66.98;101419.45;107496;1251;107884;-66
2024/01/27 07:57:28;;;;;;;22.90;15.20;;;;;;;0.33;66.90;101422.16;107508;1252;107664;-65
2024/01/27 07:59:56;;;;;;;25.80;16.10;;;;;;;0.33;67.53;101424.10;107487;1254;97822;-66
2024/01/27 08:02:26;;;;;;;37.00;18.10;;;;;;;0.30;67.81;101425.08;107557;1251;97724;-65
2024/01/27 08:04:54;;;;;;;30.10;17.10;;;;;;;0.26;68.90;101425.77;107528;1251;111244;-65
2024/01/27 08:07:23;;;;;;;28.90;17.10;;;;;;;0.23;69.57;101423.23;107637;1250;108260;-64
2024/01/27 08:09:51;;;;;;;27.30;15.80;;;;;;;0.20;69.68;101422.81;107551;1251;107691;-65
2024/01/27 08:12:19;;;;;;;25.90;15.90;;;;;;;0.22;69.52;101424.16;107584;1251;97893;-67
2024/01/27 08:14:48;;;;;;;29.40;18.30;;;;;;;0.29;69.93;101422.31;107535;1251;99700;-64
2024/01/27 08:17:16;;;;;;;37.70;16.90;;;;;;;0.41;70.03;101424.38;107524;1251;111892;-64
2024/01/27 08:19:45;;;;;;;29.80;17.20;;;;;;;0.54;70.45;101421.96;107478;1251;108117;-64
2024/01/27 08:22:13;;;;;;;29.10;16.20;;;;;;;0.62;70.46;101420.77;107455;1251;109378;-64
2024/01/27 08:24:41;;;;;;;29.00;16.00;;;;;;;0.68;71.01;101416.34;107567;1251;97818;-65
2024/01/27 08:27:10;;;;;;;26.90;14.60;;;;;;;0.72;70.76;101416.89;107491;1251;97829;-65
2024/01/27 08:29:38;;;;;;;49.90;17.50;;;;;;;0.77;70.80;101412.99;107497;1251;111501;-66
2024/01/27 08:32:07;;;;;;;30.10;17.00;;;;;;;0.85;70.61;101410.95;107538;1251;108341;-66
2024/01/27 08:34:35;;;;;;;32.30;16.30;;;;;;;0.96;70.79;101412.83;107512;1251;106809;-65
2024/01/27 08:37:16;;;;;;;24.10;15.10;;;;;;;1.10;70.88;101407.70;107529;1251;97834;-64
2024/01/27 08:39:45;;;;;;;25.40;15.40;;;;;;;1.21;70.83;101413.98;107612;1254;97724;-64
2024/01/27 08:42:13;;;;;;;24.90;15.40;;;;;;;1.30;70.99;101417.89;107626;1254;111530;-64
2024/01/27 08:44:42;;;;;;;27.70;15.20;;;;;;;1.31;70.78;101416.61;107318;1251;484310;-65
2024/01/27 08:47:10;;;;;;;28.00;15.10;;;;;;;1.34;70.37;101417.55;107537;1254;108326;-63
2024/01/27 08:49:39;;;;;;;23.10;15.90;;;;;;;1.35;70.34;101420.52;107507;1254;97895;-63
2024/01/27 08:52:08;;;;;;;27.00;17.00;;;;;;;1.37;70.39;101421.14;107574;1251;99527;-64
2024/01/27 08:54:41;;;;;;;28.40;15.50;;;;;;;1.44;70.71;101418.77;107634;1254;112022;-62
2024/01/27 08:57:11;;;;;;;29.50;16.10;;;;;;;1.41;70.29;101417.27;107573;1254;108689;-65
2024/01/27 08:59:39;;;;;;;26.00;15.80;;;;;;;1.35;70.20;101417.86;107612;1251;107068;-65
2024/01/27 09:02:07;;;;;;;24.80;15.20;;;;;;;1.31;70.07;101422.63;107565;1251;97928;-66
2024/01/27 09:04:36;;;;;;;26.60;15.20;;;;;;;1.33;70.27;101425.55;107573;1254;98556;-65
2024/01/27 09:07:05;;;;;;;24.20;15.80;;;;;;;1.33;70.27;101424.85;107580;1254;111896;-65
2024/01/27 09:09:33;;;;;;;25.70;16.30;;;;;;;1.34;70.48;101425.51;107602;1254;108270;-64
2024/01/27 09:12:02;;;;;;;30.30;15.90;;;;;;;1.31;70.53;101422.80;107587;1256;108476;-65
2024/01/27 09:14:33;;;;;;;25.80;16.00;;;;;;;1.24;70.62;101420.94;107582;1255;97908;-65
2024/01/27 09:17:02;;;;;;;24.20;15.50;;;;;;;1.17;70.71;101422.77;107574;1255;97695;-66
2024/01/27 09:19:30;;;;;;;24.60;15.80;;;;;;;1.09;71.18;101425.23;107640;1254;110808;-63
2024/01/27 09:21:59;;;;;;;27.30;17.00;;;;;;;1.06;71.06;101423.76;107634;1253;106991;-63
2024/01/27 09:24:27;;;;;;;27.40;17.10;;;;;;;1.07;71.21;101420.19;107586;1252;108446;-63
2024/01/27 09:26:55;;;;;;;31.20;17.40;;;;;;;1.10;71.39;101418.29;107610;1254;97912;-63
2024/01/27 09:29:24;;;;;;;27.20;16.30;;;;;;;1.11;71.50;101421.45;107653;1251;99603;-64
2024/01/27 09:31:52;;;;;;;28.80;16.50;;;;;;;1.12;71.44;101421.91;107589;1251;112099;-64
2024/01/27 09:34:20;;;;;;;27.50;17.40;;;;;;;1.13;71.47;101424.88;107554;1251;107327;-64
2024/01/27 09:36:49;;;;;;;28.70;17.30;;;;;;;1.15;71.43;101419.54;107516;1251;108428;-64
2024/01/27 09:39:17;;;;;;;26.80;15.90;;;;;;;1.19;71.85;101422.70;107556;1251;97985;-64
2024/01/27 09:41:48;;;;;;;32.40;17.30;;;;;;;1.27;72.01;101421.36;107564;1251;97730;-65
2024/01/27 09:44:19;;;;;;;32.20;19.70;;;;;;;1.37;71.88;101422.04;107500;1253;110747;-65
2024/01/27 09:46:48;;;;;;;31.60;16.20;;;;;;;1.48;72.45;101421.23;107631;1254;108521;-64
2024/01/27 09:49:17;;;;;;;25.20;14.90;;;;;;;1.54;72.33;101424.53;107526;1254;108320;-64
2024/01/27 09:51:46;;;;;;;31.10;15.30;;;;;;;1.59;72.51;101419.23;107603;1254;97869;-65
2024/01/27 09:54:14;;;;;;;22.00;13.20;;;;;;;1.68;72.62;101420.06;107657;1252;97720;-65
2024/01/27 09:56:46;;;;;;;27.00;13.40;;;;;;;1.77;72.78;101420.75;107641;1254;111711;-64
2024/01/27 09:59:17;;;;;;;17.70;11.80;;;;;;;1.87;72.75;101422.15;107591;1251;107308;-63
2024/01/27 10:01:48;;;;;;;21.20;12.70;;;;;;;1.94;72.86;101422.36;107619;1253;108689;-66
2024/01/27 10:04:18;;;;;;;23.40;12.20;;;;;;;1.94;72.37;101424.65;107638;1254;97940;-64
2024/01/27 10:06:48;;;;;;;19.10;11.00;;;;;;;1.89;72.20;101427.52;107445;1251;98366;-64
2024/01/27 10:09:18;;;;;;;21.40;11.90;;;;;;;1.93;72.57;101427.54;107532;1251;112377;-64
2024/01/27 10:11:49;;;;;;;20.00;13.10;;;;;;;1.96;72.28;101427.60;107647;1254;107614;-65
2024/01/27 10:14:18;;;;;;;24.50;12.30;;;;;;;2.02;72.70;101428.05;107629;1255;107347;-64
2024/01/27 10:16:46;;;;;;;18.50;12.90;;;;;;;2.13;72.94;101427.60;107600;1251;97889;-64
2024/01/27 10:19:19;;;;;;;21.60;12.90;;;;;;;2.22;72.81;101427.57;107642;1254;98492;-65
2024/01/27 10:21:48;;;;;;;25.00;13.60;;;;;;;2.38;73.29;101431.14;107658;1253;112241;-65
2024/01/27 10:24:16;;;;;;;28.20;12.30;;;;;;;2.48;72.90;101434.56;107660;1251;108023;-64
2024/01/27 10:26:45;;;;;;;17.10;12.40;;;;;;;2.54;72.68;101435.75;107639;1254;108232;-65
2024/01/27 10:29:13;;;;;;;18.40;12.70;;;;;;;2.59;72.84;101430.90;107618;1254;97836;-64
2024/01/27 10:31:42;;;;;;;23.20;13.60;;;;;;;2.54;71.89;101433.63;107604;1254;98356;-63
2024/01/27 10:34:14;;;;;;;25.90;13.00;;;;;;;2.42;71.55;101431.67;107609;1254;110894;-65
2024/01/27 10:36:44;;;;;;;24.10;14.40;;;;;;;2.39;72.01;101435.85;107661;1251;107944;-63
2024/01/27 10:39:20;;;;;;;26.20;15.40;;;;;;;2.44;71.86;101438.29;107572;1251;107573;-66
2024/01/27 10:41:49;;;;;;;26.00;15.30;;;;;;;2.48;71.93;101439.18;107585;1251;97916;-65
2024/01/27 10:44:19;;;;;;;21.10;13.80;;;;;;;2.49;71.59;101442.47;107662;1251;98392;-65
2024/01/27 10:46:49;;;;;;;24.70;14.60;;;;;;;2.46;71.85;101439.98;107673;1251;110407;-64
2024/01/27 10:49:22;;;;;;;22.50;14.10;;;;;;;2.43;71.43;101441.89;107557;1254;108660;-64
2024/01/27 10:51:55;;;;;;;21.50;14.70;;;;;;;2.37;71.57;101435.23;107631;1251;106657;-65
2024/01/27 10:54:28;;;;;;;24.20;14.70;;;;;;;2.29;71.28;101435.40;107584;1256;97637;-65
2024/01/27 10:56:58;;;;;;;30.70;16.40;;;;;;;2.26;71.37;101435.20;107615;1251;97707;-65
2024/01/27 10:59:28;;;;;;;31.90;17.40;;;;;;;2.25;71.81;101439.48;107666;1251;111344;-64
2024/01/27 11:01:57;;;;;;;32.60;17.00;;;;;;;2.20;71.68;101440.40;107479;1251;107697;-65
2024/01/27 11:04:28;;;;;;;34.20;19.80;;;;;;;2.15;71.87;101440.59;107548;1251;107701;-65
2024/01/27 11:06:58;;;;;;;27.20;17.40;;;;;;;2.08;72.06;101441.62;107485;1250;97824;-63
2024/01/27 11:09:28;;;;;;;32.40;17.30;;;;;;;1.96;72.26;101444.39;107529;1251;97843;-64